Time;durP1;ratioP1;P1;durP2;ratioP2;P2;SDS_P1;SDS_P2;PMS_P1;PMS_P2;Temp;Humidity;BMP_temperature;BMP_pressure;BME280_temperature;BME280_humidity;BME280_pressure;Samples;Min_cycle;Max_cycle;Signal;HPM_P1;HPM_P2
2023/09/07 00:01:27;;;;;;;5.70;3.87;;;;;;;;;;4915554;29;20647;-75
2023/09/07 00:03:53;;;;;;;5.17;3.83;;;;;;;;;;4915588;29;20660;-75
2023/09/07 00:06:19;;;;;;;4.10;3.77;;;;;;;;;;4914638;29;20210;-75
2023/09/07 00:08:45;;;;;;;4.63;3.50;;;;;;;;;;4915801;29;20317;-75
2023/09/07 00:11:11;;;;;;;5.47;3.50;;;;;;;;;;4917874;29;20194;-75
2023/09/07 00:13:37;;;;;;;5.27;4.07;;;;;;;;;;4915931;29;20241;-75
2023/09/07 00:16:04;;;;;;;6.33;3.73;;;;;;;;;;4915525;29;20912;-75
2023/09/07 00:18:31;;;;;;;4.33;3.70;;;;;;;;;;4915643;29;20197;-75
2023/09/07 00:20:57;;;;;;;5.37;3.97;;;;;;;;;;4915386;29;20193;-75
2023/09/07 00:23:23;;;;;;;3.90;3.60;;;;;;;;;;4915158;29;20293;-75
2023/09/07 00:25:49;;;;;;;5.50;3.70;;;;;;;;;;4915242;29;20710;-75
2023/09/07 00:28:15;;;;;;;4.40;3.90;;;;;;;;;;4917100;29;20277;-75
2023/09/07 00:30:41;;;;;;;4.03;3.73;;;;;;;;;;4913683;29;20190;-75
2023/09/07 00:33:08;;;;;;;3.73;3.43;;;;;;;;;;4898608;29;20262;-75
2023/09/07 00:35:34;;;;;;;4.20;3.80;;;;;;;;;;4914789;29;20206;-75
2023/09/07 00:38:00;;;;;;;5.27;3.60;;;;;;;;;;4917656;29;20217;-75
2023/09/07 00:40:26;;;;;;;5.80;3.77;;;;;;;;;;4913687;29;20194;-75
2023/09/07 00:42:53;;;;;;;3.70;3.40;;;;;;;;;;4915156;29;20179;-75
2023/09/07 00:45:19;;;;;;;6.27;3.60;;;;;;;;;;4913359;29;20210;-75
2023/09/07 00:47:46;;;;;;;6.27;3.60;;;;;;;;;;4913949;29;20194;-75
2023/09/07 00:50:16;;;;;;;4.60;3.37;;;;;;;;;;4913479;29;20221;-75
2023/09/07 00:52:43;;;;;;;3.47;3.17;;;;;;;;;;4913735;29;20678;-75
2023/09/07 00:55:09;;;;;;;3.70;3.40;;;;;;;;;;4914490;29;20710;-75
2023/09/07 00:57:39;;;;;;;4.07;3.67;;;;;;;;;;4908498;29;20249;-75
2023/09/07 01:00:07;;;;;;;4.53;3.30;;;;;;;;;;4913425;29;20197;-75
2023/09/07 01:02:33;;;;;;;3.77;3.47;;;;;;;;;;4914877;29;20203;-75
2023/09/07 01:05:00;;;;;;;3.87;3.37;;;;;;;;;;4914328;29;20695;-75
2023/09/07 01:07:33;;;;;;;3.50;3.20;;;;;;;;;;4914631;29;20265;-75
2023/09/07 01:10:01;;;;;;;4.03;3.60;;;;;;;;;;4914625;29;20647;-75
2023/09/07 01:12:27;;;;;;;4.00;3.60;;;;;;;;;;4916385;29;20247;-74
2023/09/07 01:14:53;;;;;;;3.57;3.27;;;;;;;;;;4914109;29;20218;-75
2023/09/07 01:17:21;;;;;;;3.93;3.20;;;;;;;;;;4914290;29;20208;-75
2023/09/07 01:19:51;;;;;;;3.30;3.00;;;;;;;;;;4913203;29;20673;-75
2023/09/07 01:22:19;;;;;;;4.27;3.87;;;;;;;;;;4880981;29;20188;-75
2023/09/07 01:24:46;;;;;;;3.73;3.40;;;;;;;;;;4912791;29;20214;-75
2023/09/07 01:27:13;;;;;;;3.50;3.20;;;;;;;;;;4913072;29;20194;-75
2023/09/07 01:29:39;;;;;;;3.60;3.30;;;;;;;;;;4913143;29;20198;-75
2023/09/07 01:32:06;;;;;;;4.13;3.57;;;;;;;;;;4914002;29;20242;-76
2023/09/07 01:34:32;;;;;;;3.67;3.37;;;;;;;;;;4913572;29;20242;-75
2023/09/07 01:36:58;;;;;;;4.20;3.80;;;;;;;;;;4911903;29;20187;-75
2023/09/07 01:39:25;;;;;;;3.87;3.50;;;;;;;;;;4912828;29;20604;-75
2023/09/07 01:41:52;;;;;;;4.87;3.80;;;;;;;;;;4909660;29;20202;-75
2023/09/07 01:44:18;;;;;;;4.40;3.63;;;;;;;;;;4911445;29;20563;-75
2023/09/07 01:46:44;;;;;;;4.13;3.80;;;;;;;;;;4905197;29;20213;-75
2023/09/07 01:49:10;;;;;;;4.30;3.37;;;;;;;;;;4914036;29;20559;-75
2023/09/07 01:51:37;;;;;;;3.70;3.40;;;;;;;;;;4912570;29;20186;-75
2023/09/07 01:54:04;;;;;;;3.80;3.47;;;;;;;;;;4896590;29;20222;-75
2023/09/07 01:56:30;;;;;;;4.57;3.70;;;;;;;;;;4912792;29;20241;-75
2023/09/07 01:58:56;;;;;;;3.90;3.40;;;;;;;;;;4918562;29;20174;-75
2023/09/07 02:01:26;;;;;;;3.80;3.50;;;;;;;;;;4913207;29;20669;-76
2023/09/07 02:03:53;;;;;;;5.27;3.60;;;;;;;;;;4913732;29;20201;-75
2023/09/07 02:06:19;;;;;;;4.93;2.97;;;;;;;;;;4913794;29;20226;-75
2023/09/07 02:08:46;;;;;;;4.10;3.70;;;;;;;;;;4912660;29;20276;-75
2023/09/07 02:11:12;;;;;;;3.93;3.63;;;;;;;;;;4913577;29;20313;-75
2023/09/07 02:13:38;;;;;;;3.73;3.30;;;;;;;;;;4912353;29;20217;-75
2023/09/07 02:16:05;;;;;;;4.03;3.73;;;;;;;;;;4912302;29;20210;-75
2023/09/07 02:18:34;;;;;;;3.97;3.33;;;;;;;;;;4912537;29;20193;-75
2023/09/07 02:21:04;;;;;;;3.63;3.33;;;;;;;;;;4912340;29;20277;-75
2023/09/07 02:23:32;;;;;;;4.33;3.93;;;;;;;;;;4913296;29;20205;-75
2023/09/07 02:25:58;;;;;;;3.83;3.53;;;;;;;;;;4915254;29;20214;-75
2023/09/07 02:28:25;;;;;;;4.70;3.70;;;;;;;;;;4912285;29;20186;-75
2023/09/07 02:30:52;;;;;;;4.30;3.90;;;;;;;;;;4912254;29;20214;-75
2023/09/07 02:33:18;;;;;;;4.13;3.40;;;;;;;;;;4912272;29;20221;-75
2023/09/07 02:35:44;;;;;;;3.90;3.50;;;;;;;;;;4911914;29;20214;-75
2023/09/07 02:38:11;;;;;;;4.57;4.00;;;;;;;;;;4901446;29;20269;-75
2023/09/07 02:40:42;;;;;;;4.30;3.90;;;;;;;;;;4912237;29;20178;-75
2023/09/07 02:43:08;;;;;;;5.83;3.60;;;;;;;;;;4912312;29;20193;-75
2023/09/07 02:45:34;;;;;;;5.00;3.93;;;;;;;;;;4911924;29;20277;-75
2023/09/07 02:48:01;;;;;;;3.87;3.23;;;;;;;;;;4913586;29;20178;-75
2023/09/07 02:50:29;;;;;;;4.57;4.00;;;;;;;;;;4896991;29;20191;-75
2023/09/07 02:52:55;;;;;;;4.40;4.00;;;;;;;;;;4913644;29;20242;-75
2023/09/07 02:55:21;;;;;;;5.13;4.17;;;;;;;;;;4910930;29;20266;-75
2023/09/07 02:57:47;;;;;;;4.57;4.07;;;;;;;;;;4913502;29;20193;-75
2023/09/07 03:00:13;;;;;;;3.77;3.47;;;;;;;;;;4911951;29;20191;-75
2023/09/07 03:02:40;;;;;;;5.03;4.10;;;;;;;;;;4910172;29;20191;-75
2023/09/07 03:05:07;;;;;;;4.73;3.37;;;;;;;;;;4911693;29;20238;-75
2023/09/07 03:07:34;;;;;;;4.57;3.80;;;;;;;;;;4912245;29;20677;-75
2023/09/07 03:10:01;;;;;;;4.30;3.90;;;;;;;;;;4910371;29;20178;-75
2023/09/07 03:12:28;;;;;;;5.30;3.70;;;;;;;;;;4910390;29;20183;-75
2023/09/07 03:14:54;;;;;;;4.50;3.90;;;;;;;;;;4915166;29;20218;-75
2023/09/07 03:17:20;;;;;;;4.03;3.73;;;;;;;;;;4915453;29;20183;-75
2023/09/07 03:19:47;;;;;;;4.37;3.80;;;;;;;;;;4913658;29;20413;-75
2023/09/07 03:22:14;;;;;;;4.00;3.60;;;;;;;;;;4915149;29;20218;-75
2023/09/07 03:24:40;;;;;;;4.07;3.67;;;;;;;;;;4916114;29;20214;-75
2023/09/07 03:27:07;;;;;;;4.00;3.70;;;;;;;;;;4915262;29;20190;-75
2023/09/07 03:29:33;;;;;;;3.97;3.63;;;;;;;;;;4913725;29;20541;-76
2023/09/07 03:32:00;;;;;;;4.90;3.90;;;;;;;;;;4913271;29;20729;-75
2023/09/07 03:34:26;;;;;;;4.20;3.80;;;;;;;;;;4914541;29;20241;-75
2023/09/07 03:36:53;;;;;;;3.97;3.57;;;;;;;;;;4916367;29;20277;-75
2023/09/07 03:39:21;;;;;;;4.13;3.60;;;;;;;;;;4915204;29;20559;-75
2023/09/07 03:41:47;;;;;;;4.67;4.00;;;;;;;;;;4930772;29;20186;-75
2023/09/07 03:44:13;;;;;;;4.70;3.87;;;;;;;;;;4914663;29;20198;-75
2023/09/07 03:46:40;;;;;;;3.93;3.40;;;;;;;;;;4915029;29;20206;-75
2023/09/07 03:49:06;;;;;;;4.07;3.67;;;;;;;;;;4896265;29;20187;-75
2023/09/07 03:51:33;;;;;;;6.13;3.80;;;;;;;;;;4913404;29;20205;-75
2023/09/07 03:53:59;;;;;;;4.00;3.60;;;;;;;;;;4916026;29;20270;-75
2023/09/07 03:56:25;;;;;;;3.83;3.53;;;;;;;;;;4899285;29;20206;-75
2023/09/07 03:58:52;;;;;;;4.60;3.90;;;;;;;;;;4899435;29;20183;-75
2023/09/07 04:01:18;;;;;;;5.40;3.77;;;;;;;;;;4914592;29;20190;-75
2023/09/07 04:03:44;;;;;;;4.80;3.53;;;;;;;;;;4914540;29;20194;-75
2023/09/07 04:06:11;;;;;;;6.10;3.83;;;;;;;;;;4914699;29;20221;-75
2023/09/07 04:08:37;;;;;;;4.77;4.27;;;;;;;;;;4914493;29;20194;-75
2023/09/07 04:11:04;;;;;;;4.43;4.00;;;;;;;;;;4915787;29;20198;-75
2023/09/07 04:13:31;;;;;;;4.93;4.53;;;;;;;;;;4912497;29;20211;-75
2023/09/07 04:15:57;;;;;;;5.00;4.50;;;;;;;;;;4920081;29;20290;-75
2023/09/07 04:18:23;;;;;;;7.67;4.93;;;;;;;;;;4909482;29;20665;-75
2023/09/07 04:20:49;;;;;;;6.90;5.83;;;;;;;;;;4923788;29;20650;-75
2023/09/07 04:23:16;;;;;;;6.90;5.80;;;;;;;;;;4919560;29;20689;-75
2023/09/07 04:25:42;;;;;;;8.13;6.20;;;;;;;;;;4923575;29;20230;-75
2023/09/07 04:28:09;;;;;;;6.53;5.87;;;;;;;;;;4920780;29;20704;-75
2023/09/07 04:30:38;;;;;;;6.17;5.50;;;;;;;;;;4920457;29;20671;-75
2023/09/07 04:33:05;;;;;;;5.80;5.20;;;;;;;;;;4916026;29;20191;-75
2023/09/07 04:35:32;;;;;;;7.77;5.67;;;;;;;;;;4914792;29;20205;-75
2023/09/07 04:37:58;;;;;;;7.53;5.43;;;;;;;;;;4914435;29;20189;-75
2023/09/07 04:40:25;;;;;;;5.93;5.43;;;;;;;;;;4925813;29;20182;-75
2023/09/07 04:42:51;;;;;;;7.27;6.47;;;;;;;;;;4914288;29;20569;-75
2023/09/07 04:45:17;;;;;;;6.00;5.40;;;;;;;;;;4897995;29;20678;-75
2023/09/07 04:47:44;;;;;;;6.90;6.20;;;;;;;;;;4922037;29;20213;-75
2023/09/07 04:50:11;;;;;;;6.17;5.57;;;;;;;;;;4913757;29;20194;-75
2023/09/07 04:52:37;;;;;;;6.70;6.10;;;;;;;;;;4913580;29;20191;-75
2023/09/07 04:55:03;;;;;;;6.63;5.77;;;;;;;;;;4913351;29;20222;-75
2023/09/07 04:57:31;;;;;;;7.03;6.10;;;;;;;;;;4912965;29;20565;-75
2023/09/07 04:59:57;;;;;;;8.30;6.00;;;;;;;;;;4911896;29;20187;-75
2023/09/07 05:02:23;;;;;;;8.30;6.23;;;;;;;;;;4913174;29;20182;-75
2023/09/07 05:04:50;;;;;;;9.53;6.40;;;;;;;;;;4913289;29;20214;-75
2023/09/07 05:07:16;;;;;;;5.77;5.17;;;;;;;;;;4913542;29;20665;-75
2023/09/07 05:09:43;;;;;;;5.73;4.60;;;;;;;;;;4913372;29;20281;-75
2023/09/07 05:12:10;;;;;;;4.73;4.33;;;;;;;;;;4914427;29;20269;-75
2023/09/07 05:14:36;;;;;;;4.40;3.93;;;;;;;;;;4903526;29;20316;-75
2023/09/07 05:17:02;;;;;;;4.50;4.10;;;;;;;;;;4913405;29;20549;-75
2023/09/07 05:19:29;;;;;;;4.63;4.23;;;;;;;;;;4912124;29;20210;-75
2023/09/07 05:21:56;;;;;;;4.33;4.00;;;;;;;;;;4919636;29;20182;-75
2023/09/07 05:24:22;;;;;;;4.73;4.13;;;;;;;;;;4912535;29;20186;-75
2023/09/07 05:26:50;;;;;;;5.33;4.37;;;;;;;;;;4914317;29;20218;-75
2023/09/07 05:29:16;;;;;;;4.80;3.83;;;;;;;;;;4910454;29;20187;-75
2023/09/07 05:31:42;;;;;;;4.43;4.03;;;;;;;;;;4918996;29;20230;-75
2023/09/07 05:34:09;;;;;;;5.73;4.20;;;;;;;;;;4909516;29;20267;-75
2023/09/07 05:36:35;;;;;;;4.27;3.87;;;;;;;;;;4913259;29;20187;-75
2023/09/07 05:39:02;;;;;;;4.30;4.00;;;;;;;;;;4896968;29;20205;-75
2023/09/07 05:41:28;;;;;;;4.20;3.80;;;;;;;;;;4910186;29;20190;-78
2023/09/07 05:43:55;;;;;;;4.40;4.00;;;;;;;;;;4922972;29;20194;-78
2023/09/07 05:46:21;;;;;;;4.13;3.73;;;;;;;;;;4919876;29;20214;-77
2023/09/07 05:48:47;;;;;;;4.40;3.90;;;;;;;;;;4894895;29;20186;-76
2023/09/07 05:51:15;;;;;;;4.10;3.80;;;;;;;;;;4907411;29;20666;-80
2023/09/07 05:53:41;;;;;;;5.87;4.20;;;;;;;;;;4895201;29;20272;-76
2023/09/07 05:56:08;;;;;;;4.80;4.30;;;;;;;;;;4896285;29;20710;-76
2023/09/07 05:58:35;;;;;;;4.80;3.90;;;;;;;;;;4911125;29;20658;-76
2023/09/07 06:01:02;;;;;;;4.97;4.07;;;;;;;;;;4924538;29;20178;-75
2023/09/07 06:03:28;;;;;;;4.50;4.10;;;;;;;;;;4918629;29;20183;-76
2023/09/07 06:05:54;;;;;;;4.53;4.13;;;;;;;;;;4912606;29;20210;-76
2023/09/07 06:08:20;;;;;;;3.90;3.60;;;;;;;;;;4911768;29;20225;-75
2023/09/07 06:10:46;;;;;;;5.80;3.97;;;;;;;;;;4923942;29;20249;-76
2023/09/07 06:13:12;;;;;;;4.37;3.83;;;;;;;;;;4911477;29;20291;-76
2023/09/07 06:15:39;;;;;;;4.60;4.20;;;;;;;;;;4920301;29;20203;-76
2023/09/07 06:18:05;;;;;;;7.87;4.50;;;;;;;;;;4916850;29;20194;-75
2023/09/07 06:20:32;;;;;;;5.40;4.70;;;;;;;;;;4912347;29;20210;-75
2023/09/07 06:23:00;;;;;;;6.40;5.70;;;;;;;;;;4896390;29;20176;-76
2023/09/07 06:25:27;;;;;;;6.53;5.93;;;;;;;;;;4912209;29;20206;-76
2023/09/07 06:27:53;;;;;;;8.83;5.63;;;;;;;;;;4912985;29;20190;-76
2023/09/07 06:30:19;;;;;;;6.53;4.40;;;;;;;;;;4928295;29;20190;-75
2023/09/07 06:32:48;;;;;;;5.13;4.20;;;;;;;;;;4918599;29;20197;-75
2023/09/07 06:35:15;;;;;;;4.80;4.30;;;;;;;;;;4912211;29;20874;-75
2023/09/07 06:37:43;;;;;;;4.67;4.20;;;;;;;;;;4911652;29;20258;-75
2023/09/07 06:40:11;;;;;;;6.27;4.17;;;;;;;;;;4918293;29;20190;-76
2023/09/07 06:42:38;;;;;;;4.90;3.70;;;;;;;;;;4911412;29;20186;-77
2023/09/07 06:45:09;;;;;;;4.30;4.00;;;;;;;;;;4918374;29;20745;-76
2023/09/07 06:47:36;;;;;;;5.33;4.07;;;;;;;;;;4915513;29;20674;-77
2023/09/07 06:50:03;;;;;;;5.57;4.30;;;;;;;;;;4921025;29;20238;-76
2023/09/07 06:52:30;;;;;;;4.30;3.50;;;;;;;;;;4918163;29;20269;-77
2023/09/07 06:54:56;;;;;;;4.60;3.90;;;;;;;;;;4921918;29;20214;-76
2023/09/07 06:57:23;;;;;;;4.07;3.67;;;;;;;;;;4915850;29;20256;-76
2023/09/07 06:59:49;;;;;;;5.97;4.10;;;;;;;;;;4919506;29;20188;-77
2023/09/07 07:02:15;;;;;;;4.97;4.00;;;;;;;;;;4918316;29;20277;-76
2023/09/07 07:04:43;;;;;;;4.40;3.90;;;;;;;;;;4920796;29;20754;-76
2023/09/07 07:07:10;;;;;;;4.30;3.67;;;;;;;;;;4912611;29;20192;-76
2023/09/07 07:09:36;;;;;;;6.27;4.17;;;;;;;;;;4921272;29;20182;-76
2023/09/07 07:12:02;;;;;;;5.87;4.00;;;;;;;;;;4921790;29;20285;-76
2023/09/07 07:14:29;;;;;;;4.50;4.10;;;;;;;;;;4915051;29;20232;-77
2023/09/07 07:16:55;;;;;;;4.83;4.20;;;;;;;;;;4919958;29;20216;-76
2023/09/07 07:19:22;;;;;;;5.87;3.97;;;;;;;;;;4923965;29;20194;-76
2023/09/07 07:21:49;;;;;;;6.20;4.20;;;;;;;;;;4921820;29;20250;-76
2023/09/07 07:24:15;;;;;;;4.67;4.27;;;;;;;;;;4915114;29;20205;-76
2023/09/07 07:26:42;;;;;;;5.23;4.00;;;;;;;;;;4921889;29;20194;-77
2023/09/07 07:29:09;;;;;;;6.00;3.97;;;;;;;;;;4915536;29;20227;-76
2023/09/07 07:31:36;;;;;;;5.50;4.10;;;;;;;;;;4916253;29;20746;-76
2023/09/07 07:34:02;;;;;;;4.80;4.27;;;;;;;;;;4896289;29;20211;-77
2023/09/07 07:36:29;;;;;;;4.13;3.70;;;;;;;;;;4913698;29;20217;-77
2023/09/07 07:38:55;;;;;;;4.83;4.30;;;;;;;;;;4927567;29;20187;-76
2023/09/07 07:41:21;;;;;;;5.70;4.60;;;;;;;;;;4914885;29;20183;-76
2023/09/07 07:43:48;;;;;;;5.73;4.43;;;;;;;;;;4918004;29;20186;-76
2023/09/07 07:46:17;;;;;;;5.03;4.40;;;;;;;;;;4932807;29;20198;-76
2023/09/07 07:48:43;;;;;;;5.53;4.37;;;;;;;;;;4914417;29;20195;-76
2023/09/07 07:51:10;;;;;;;5.03;4.20;;;;;;;;;;4914860;29;20182;-76
2023/09/07 07:53:37;;;;;;;5.30;3.90;;;;;;;;;;4922164;29;20218;-77
2023/09/07 07:56:04;;;;;;;3.90;3.60;;;;;;;;;;4914643;29;20329;-76
2023/09/07 07:58:30;;;;;;;5.33;4.57;;;;;;;;;;4915315;29;20191;-76
2023/09/07 08:00:58;;;;;;;4.97;4.40;;;;;;;;;;4914476;29;20262;-76
2023/09/07 08:03:27;;;;;;;4.47;4.07;;;;;;;;;;4914605;29;20553;-75
2023/09/07 08:05:54;;;;;;;4.70;4.30;;;;;;;;;;4918303;29;20273;-76
2023/09/07 08:08:20;;;;;;;4.10;3.70;;;;;;;;;;4917543;29;20200;-76
2023/09/07 08:10:47;;;;;;;5.73;3.83;;;;;;;;;;4914295;29;20556;-75
2023/09/07 08:13:14;;;;;;;5.47;3.80;;;;;;;;;;4914467;29;20266;-75
2023/09/07 08:15:41;;;;;;;4.40;4.03;;;;;;;;;;4914070;29;20221;-75
2023/09/07 08:18:08;;;;;;;3.90;3.60;;;;;;;;;;4920175;29;20182;-76
2023/09/07 08:20:36;;;;;;;4.20;3.80;;;;;;;;;;4914811;29;20211;-76
2023/09/07 08:23:07;;;;;;;3.83;3.53;;;;;;;;;;4919412;29;20194;-76
2023/09/07 08:25:33;;;;;;;3.87;3.57;;;;;;;;;;4914851;29;20286;-76
2023/09/07 08:27:59;;;;;;;4.13;3.80;;;;;;;;;;4914228;29;20187;-76
2023/09/07 08:30:26;;;;;;;4.30;3.90;;;;;;;;;;4922142;29;20258;-76
2023/09/07 08:32:52;;;;;;;4.10;3.70;;;;;;;;;;4930277;29;20274;-76
2023/09/07 08:35:18;;;;;;;4.87;4.10;;;;;;;;;;4922075;29;20218;-76
2023/09/07 08:37:44;;;;;;;5.90;4.10;;;;;;;;;;4921222;29;20198;-76
2023/09/07 08:40:11;;;;;;;4.53;4.13;;;;;;;;;;4914866;29;20221;-76
2023/09/07 08:42:38;;;;;;;4.50;4.10;;;;;;;;;;4913786;29;20219;-76
2023/09/07 08:45:08;;;;;;;4.40;4.00;;;;;;;;;;4920060;29;20573;-76
2023/09/07 08:47:37;;;;;;;4.17;3.87;;;;;;;;;;4916494;29;20227;-76
2023/09/07 08:50:07;;;;;;;4.10;3.80;;;;;;;;;;4914904;29;20190;-76
2023/09/07 08:52:34;;;;;;;4.80;4.40;;;;;;;;;;4930480;29;20706;-76
2023/09/07 08:55:04;;;;;;;5.10;3.93;;;;;;;;;;4925125;29;20213;-75
2023/09/07 08:57:30;;;;;;;4.50;4.10;;;;;;;;;;4917520;29;20215;-75
2023/09/07 08:59:56;;;;;;;4.40;3.40;;;;;;;;;;4921478;29;20194;-76
2023/09/07 09:02:23;;;;;;;4.30;3.90;;;;;;;;;;4913371;29;20241;-76
2023/09/07 09:04:49;;;;;;;5.67;4.37;;;;;;;;;;4910051;29;20206;-76
2023/09/07 09:07:15;;;;;;;4.37;3.97;;;;;;;;;;4926461;29;20679;-75
2023/09/07 09:09:41;;;;;;;4.80;4.40;;;;;;;;;;4931529;29;20697;-76
2023/09/07 09:12:11;;;;;;;5.20;4.00;;;;;;;;;;4932400;29;20192;-76
2023/09/07 09:14:37;;;;;;;5.60;4.57;;;;;;;;;;4932002;29;20214;-76
2023/09/07 09:17:03;;;;;;;4.93;4.20;;;;;;;;;;4927790;29;20175;-76
2023/09/07 09:19:37;;;;;;;4.67;4.20;;;;;;;;;;4929458;29;20199;-76
2023/09/07 09:22:03;;;;;;;5.17;4.30;;;;;;;;;;4927106;29;20190;-76
2023/09/07 09:24:33;;;;;;;4.37;3.97;;;;;;;;;;4924566;29;20200;-76
2023/09/07 09:26:59;;;;;;;5.13;4.33;;;;;;;;;;4947896;29;20274;-76
2023/09/07 09:29:27;;;;;;;4.40;4.00;;;;;;;;;;4925041;29;20663;-76
2023/09/07 09:31:53;;;;;;;5.07;4.00;;;;;;;;;;4929216;29;20275;-76
2023/09/07 09:34:20;;;;;;;6.87;4.53;;;;;;;;;;4913877;29;20216;-76
2023/09/07 09:36:47;;;;;;;4.50;4.10;;;;;;;;;;4914373;29;20189;-76
2023/09/07 09:39:22;;;;;;;5.67;4.30;;;;;;;;;;4914272;29;20266;-76
2023/09/07 09:41:48;;;;;;;4.30;3.87;;;;;;;;;;4914218;29;20200;-75
2023/09/07 09:44:15;;;;;;;4.20;3.80;;;;;;;;;;4913725;29;20289;-76
2023/09/07 09:46:42;;;;;;;4.30;3.90;;;;;;;;;;4914232;29;20206;-76
2023/09/07 09:49:11;;;;;;;4.60;4.20;;;;;;;;;;4912145;29;20197;-76
2023/09/07 09:51:37;;;;;;;5.43;4.10;;;;;;;;;;4923296;29;20198;-76
2023/09/07 09:54:04;;;;;;;4.80;3.90;;;;;;;;;;4913778;29;20289;-76
2023/09/07 09:56:30;;;;;;;5.13;4.10;;;;;;;;;;4913890;29;20615;-76
2023/09/07 09:58:56;;;;;;;4.27;3.97;;;;;;;;;;4914076;29;20826;-76
2023/09/07 10:01:23;;;;;;;5.40;4.30;;;;;;;;;;4912584;29;20178;-76
2023/09/07 10:03:50;;;;;;;4.00;3.60;;;;;;;;;;4912424;29;20222;-75
2023/09/07 10:06:21;;;;;;;4.10;3.80;;;;;;;;;;4913842;29;20209;-76
2023/09/07 10:09:17;;;;;;;4.43;4.03;;;;;;;;;;4911191;29;20211;-76
2023/09/07 10:11:43;;;;;;;4.90;4.50;;;;;;;;;;4912286;29;20210;-76
2023/09/07 10:14:11;;;;;;;4.60;4.20;;;;;;;;;;4907815;29;20217;-76
2023/09/07 10:16:51;;;;;;;4.70;4.10;;;;;;;;;;4912122;29;20294;-77
2023/09/07 10:19:18;;;;;;;6.57;4.50;;;;;;;;;;4913678;29;20209;-76
2023/09/07 10:21:45;;;;;;;4.63;3.97;;;;;;;;;;4914408;29;20218;-76
2023/09/07 10:24:11;;;;;;;4.53;4.10;;;;;;;;;;4907719;29;20227;-76
2023/09/07 10:26:37;;;;;;;4.37;3.90;;;;;;;;;;4915364;29;20247;-76
2023/09/07 10:29:05;;;;;;;4.53;4.13;;;;;;;;;;4910857;29;20228;-77
2023/09/07 10:31:31;;;;;;;4.83;3.80;;;;;;;;;;4913783;29;20286;-77
2023/09/07 10:34:08;;;;;;;4.33;3.90;;;;;;;;;;4911490;29;20594;-77
2023/09/07 10:36:35;;;;;;;4.63;4.00;;;;;;;;;;4912646;29;20222;-76
2023/09/07 10:39:01;;;;;;;5.57;4.20;;;;;;;;;;4915079;29;20193;-77
2023/09/07 10:41:27;;;;;;;6.27;4.10;;;;;;;;;;4904260;29;20217;-76
2023/09/07 10:43:57;;;;;;;4.43;4.03;;;;;;;;;;4903835;29;20187;-77
2023/09/07 10:46:24;;;;;;;5.17;4.00;;;;;;;;;;4913319;29;20610;-75
2023/09/07 10:48:51;;;;;;;6.00;4.07;;;;;;;;;;4905872;29;20665;-77
2023/09/07 10:51:17;;;;;;;4.20;3.80;;;;;;;;;;4912713;29;20194;-78
2023/09/07 10:53:43;;;;;;;4.47;4.07;;;;;;;;;;4918161;29;20202;-81
2023/09/07 10:56:10;;;;;;;6.30;4.30;;;;;;;;;;4917528;29;20202;-81
2023/09/07 10:58:41;;;;;;;4.87;3.90;;;;;;;;;;4897901;29;20546;-77
2023/09/07 11:01:11;;;;;;;4.10;3.70;;;;;;;;;;4913476;29;20746;-81
2023/09/07 11:03:38;;;;;;;3.77;3.47;;;;;;;;;;4914930;29;20277;-79
2023/09/07 11:06:09;;;;;;;3.97;3.67;;;;;;;;;;4915797;29;20210;-81
2023/09/07 11:08:36;;;;;;;4.70;4.10;;;;;;;;;;4913072;29;20198;-80
2023/09/07 11:11:05;;;;;;;4.27;3.70;;;;;;;;;;4899667;29;20179;-80
2023/09/07 11:13:32;;;;;;;4.13;3.70;;;;;;;;;;4910616;29;20246;-79
2023/09/07 11:15:58;;;;;;;4.13;3.73;;;;;;;;;;4905520;29;20206;-80
2023/09/07 11:18:25;;;;;;;4.07;3.70;;;;;;;;;;4905302;29;20199;-76
2023/09/07 11:20:52;;;;;;;4.13;3.80;;;;;;;;;;4912489;29;20696;-78
2023/09/07 11:23:18;;;;;;;5.07;3.97;;;;;;;;;;4898770;29;20188;-76
2023/09/07 11:25:45;;;;;;;4.13;3.77;;;;;;;;;;4912666;29;20222;-77
2023/09/07 11:28:11;;;;;;;4.20;3.80;;;;;;;;;;4904197;29;20184;-77
2023/09/07 11:30:38;;;;;;;4.00;3.70;;;;;;;;;;4914848;29;20221;-78
2023/09/07 11:33:07;;;;;;;3.70;3.40;;;;;;;;;;4909814;29;20659;-77
2023/09/07 11:35:36;;;;;;;3.93;3.60;;;;;;;;;;4915226;29;20220;-77
2023/09/07 11:38:04;;;;;;;3.90;3.47;;;;;;;;;;4904567;29;20192;-75
2023/09/07 11:40:31;;;;;;;3.77;3.47;;;;;;;;;;4917461;29;20188;-75
2023/09/07 11:42:58;;;;;;;3.63;3.33;;;;;;;;;;4917685;29;20715;-74
2023/09/07 11:45:24;;;;;;;3.97;3.57;;;;;;;;;;4908625;29;20211;-77
2023/09/07 11:47:51;;;;;;;4.70;3.60;;;;;;;;;;4914216;29;20551;-78
2023/09/07 11:50:18;;;;;;;4.03;3.73;;;;;;;;;;4906996;29;20187;-77
2023/09/07 11:52:45;;;;;;;3.77;3.47;;;;;;;;;;4915874;29;20224;-74
2023/09/07 11:55:11;;;;;;;4.50;3.50;;;;;;;;;;4909624;29;20215;-75
2023/09/07 11:57:37;;;;;;;4.20;3.70;;;;;;;;;;4913990;29;20677;-74
2023/09/07 12:00:05;;;;;;;5.37;3.37;;;;;;;;;;4908238;29;20184;-73
2023/09/07 12:02:39;;;;;;;3.93;3.53;;;;;;;;;;4907149;29;20183;-73
2023/09/07 12:05:07;;;;;;;7.20;3.70;;;;;;;;;;4904647;29;20211;-73
2023/09/07 12:07:34;;;;;;;4.27;3.80;;;;;;;;;;4905096;29;20702;-73
2023/09/07 12:10:00;;;;;;;4.97;3.33;;;;;;;;;;4921741;29;20560;-73
2023/09/07 12:12:26;;;;;;;3.67;3.37;;;;;;;;;;4915317;29;20201;-74
2023/09/07 12:14:53;;;;;;;3.83;3.43;;;;;;;;;;4911639;29;20218;-75
2023/09/07 12:17:19;;;;;;;3.90;3.60;;;;;;;;;;4901845;29;20281;-75
2023/09/07 12:19:46;;;;;;;3.97;3.57;;;;;;;;;;4907616;29;20206;-74
2023/09/07 12:22:13;;;;;;;3.97;3.67;;;;;;;;;;4915159;29;20268;-74
2023/09/07 12:24:39;;;;;;;4.93;3.60;;;;;;;;;;4912829;29;20253;-74
2023/09/07 12:27:05;;;;;;;3.70;3.40;;;;;;;;;;4904634;29;20541;-75
2023/09/07 12:29:31;;;;;;;4.73;3.83;;;;;;;;;;4906795;29;20195;-75
2023/09/07 12:31:57;;;;;;;3.80;3.50;;;;;;;;;;4912708;29;20767;-75
2023/09/07 12:34:25;;;;;;;4.03;3.63;;;;;;;;;;4911761;29;20303;-74
2023/09/07 12:36:51;;;;;;;6.33;3.57;;;;;;;;;;4911318;29;20191;-75
2023/09/07 12:39:17;;;;;;;3.60;3.30;;;;;;;;;;4915764;29;20596;-75
2023/09/07 12:41:43;;;;;;;3.83;3.30;;;;;;;;;;4913392;29;20189;-75
2023/09/07 12:44:09;;;;;;;3.80;3.50;;;;;;;;;;4924458;29;20196;-75
2023/09/07 12:46:37;;;;;;;4.00;3.60;;;;;;;;;;4910704;29;20225;-74
2023/09/07 12:49:04;;;;;;;3.70;3.40;;;;;;;;;;4908693;29;20187;-75
2023/09/07 12:51:30;;;;;;;4.00;3.60;;;;;;;;;;4911668;29;20214;-74
2023/09/07 12:53:56;;;;;;;3.77;3.20;;;;;;;;;;4914477;29;20226;-75
2023/09/07 12:56:23;;;;;;;4.40;3.60;;;;;;;;;;4912021;29;20207;-75
2023/09/07 12:58:52;;;;;;;3.90;3.50;;;;;;;;;;4913219;29;20187;-76
2023/09/07 13:01:18;;;;;;;3.60;3.30;;;;;;;;;;4909134;29;20198;-75
2023/09/07 13:03:44;;;;;;;4.80;3.30;;;;;;;;;;4913723;29;20280;-75
2023/09/07 13:06:10;;;;;;;3.40;3.10;;;;;;;;;;4911378;29;20596;-76
2023/09/07 13:08:37;;;;;;;5.17;3.30;;;;;;;;;;4911943;29;20274;-75
2023/09/07 13:11:03;;;;;;;3.70;3.40;;;;;;;;;;4910183;29;20193;-75
2023/09/07 13:13:29;;;;;;;5.07;3.70;;;;;;;;;;4911879;29;20199;-75
2023/09/07 13:15:59;;;;;;;5.63;3.77;;;;;;;;;;4909194;29;20208;-75
2023/09/07 13:18:25;;;;;;;3.60;3.30;;;;;;;;;;4902624;29;20244;-75
2023/09/07 13:20:59;;;;;;;3.37;3.10;;;;;;;;;;4910187;29;20199;-74
2023/09/07 13:23:26;;;;;;;3.90;3.33;;;;;;;;;;4927608;29;20270;-74
2023/09/07 13:25:52;;;;;;;3.50;3.20;;;;;;;;;;4905642;29;20201;-75
2023/09/07 13:28:18;;;;;;;3.10;2.90;;;;;;;;;;4912730;29;20245;-77
2023/09/07 13:30:45;;;;;;;3.53;3.23;;;;;;;;;;4900138;29;20190;-76
2023/09/07 13:33:11;;;;;;;4.50;2.97;;;;;;;;;;4912513;29;20191;-76
2023/09/07 13:35:37;;;;;;;3.40;3.10;;;;;;;;;;4910608;29;20219;-75
2023/09/07 13:38:03;;;;;;;5.17;3.10;;;;;;;;;;4916459;29;20244;-76
2023/09/07 13:40:30;;;;;;;3.60;3.30;;;;;;;;;;4906838;29;20610;-75
2023/09/07 13:42:57;;;;;;;5.17;3.17;;;;;;;;;;4906969;29;20192;-75
2023/09/07 13:45:23;;;;;;;3.00;2.70;;;;;;;;;;4914104;29;20298;-75
2023/09/07 13:47:49;;;;;;;3.03;2.83;;;;;;;;;;4904864;29;20279;-75
2023/09/07 13:50:15;;;;;;;3.30;3.03;;;;;;;;;;4910087;29;20541;-75
2023/09/07 13:52:41;;;;;;;3.20;3.00;;;;;;;;;;4907396;29;20186;-75
2023/09/07 13:55:08;;;;;;;3.63;3.30;;;;;;;;;;4917262;29;20216;-75
2023/09/07 13:57:34;;;;;;;2.88;2.67;;;;;;;;;;4911341;29;20280;-75
2023/09/07 14:00:00;;;;;;;3.05;2.78;;;;;;;;;;4914532;29;20178;-75
2023/09/07 14:02:27;;;;;;;3.33;3.05;;;;;;;;;;4910949;29;20658;-75
2023/09/07 14:04:53;;;;;;;5.15;2.90;;;;;;;;;;4905310;29;20298;-75
2023/09/07 14:07:19;;;;;;;3.22;2.95;;;;;;;;;;4904154;29;20183;-75
2023/09/07 14:09:45;;;;;;;4.53;3.20;;;;;;;;;;4907636;29;20227;-74
2023/09/07 14:12:11;;;;;;;4.57;2.97;;;;;;;;;;4913131;29;20248;-75
2023/09/07 14:14:38;;;;;;;3.88;2.65;;;;;;;;;;4906653;29;20226;-77
2023/09/07 14:17:05;;;;;;;3.38;3.10;;;;;;;;;;4912938;29;20578;-76
2023/09/07 14:19:32;;;;;;;4.05;3.08;;;;;;;;;;4913402;29;20293;-76
2023/09/07 14:21:58;;;;;;;4.45;3.00;;;;;;;;;;4903631;29;20612;-75
2023/09/07 14:24:25;;;;;;;4.55;3.17;;;;;;;;;;4890971;29;20224;-76
2023/09/07 14:26:51;;;;;;;3.33;3.00;;;;;;;;;;4905144;29;20612;-75
2023/09/07 14:29:17;;;;;;;3.20;2.90;;;;;;;;;;4909037;29;20193;-74
2023/09/07 14:31:43;;;;;;;4.65;3.05;;;;;;;;;;4900416;29;20286;-75
2023/09/07 14:34:10;;;;;;;4.45;3.20;;;;;;;;;;4909215;29;20741;-74
2023/09/07 14:36:37;;;;;;;3.70;2.83;;;;;;;;;;4905179;29;20217;-75
2023/09/07 14:39:03;;;;;;;3.28;2.97;;;;;;;;;;4910468;29;20185;-75
2023/09/07 14:41:30;;;;;;;3.40;3.10;;;;;;;;;;4910073;29;20195;-75